createdAt,value
2022-11-20T00:00:51.367Z,9.719010
2022-11-20T00:01:51.421Z,9.719091
2022-11-20T00:02:51.356Z,9.719077
2022-11-20T00:03:51.370Z,9.719171
2022-11-20T00:04:51.349Z,9.719210
2022-11-20T00:05:51.333Z,9.719071
2022-11-20T00:06:51.333Z,9.719042
2022-11-20T00:07:51.312Z,9.719125
2022-11-20T00:08:51.302Z,9.719145
2022-11-20T00:09:51.298Z,9.719136
2022-11-20T00:10:52.283Z,9.719077
2022-11-20T00:11:51.276Z,9.719165
2022-11-20T00:12:51.268Z,9.719110
2022-11-20T00:13:51.250Z,9.719174
2022-11-20T00:14:52.263Z,9.719186
2022-11-20T00:15:51.249Z,9.719149
2022-11-20T00:16:51.269Z,9.719122
2022-11-20T00:17:51.227Z,9.719070
2022-11-20T00:18:51.252Z,9.719042
2022-11-20T00:19:51.237Z,9.719031
2022-11-20T00:20:51.209Z,9.719077
2022-11-20T00:21:51.180Z,9.719015
2022-11-20T00:22:51.166Z,9.718974
2022-11-20T00:23:51.158Z,9.719042
2022-11-20T00:24:51.172Z,9.719069
2022-11-20T00:25:51.165Z,9.719134
2022-11-20T00:26:51.140Z,9.719081
2022-11-20T00:27:51.117Z,9.719119
2022-11-20T00:28:51.131Z,9.719103
2022-11-20T00:29:51.104Z,9.719066
2022-11-20T00:30:51.127Z,9.719053
2022-11-20T00:31:51.092Z,9.719083
2022-11-20T00:32:51.083Z,9.719139
2022-11-20T00:33:51.078Z,9.719149
2022-11-20T00:34:51.056Z,9.719195
2022-11-20T00:35:51.053Z,9.719148
2022-11-20T00:36:51.050Z,9.719161
2022-11-20T00:37:51.051Z,9.719144
2022-11-20T00:38:51.030Z,9.719147
2022-11-20T00:39:51.008Z,9.719262
2022-11-20T00:40:54.687Z,9.719232
2022-11-20T00:41:52.003Z,9.719192
2022-11-20T00:42:51.005Z,9.719152
2022-11-20T00:43:50.971Z,9.719146
2022-11-20T00:44:50.986Z,9.719154
2022-11-20T00:45:50.954Z,9.719161
2022-11-20T00:46:50.965Z,9.719104
2022-11-20T00:47:50.942Z,9.719049
2022-11-20T00:48:50.918Z,9.719117
2022-11-20T00:49:50.923Z,9.719120
2022-11-20T00:50:50.920Z,9.719110
2022-11-20T00:51:50.937Z,9.719193
2022-11-20T00:52:50.928Z,9.719185
2022-11-20T00:53:50.893Z,9.719139
2022-11-20T00:54:50.881Z,9.719118
2022-11-20T00:55:50.862Z,9.719068
2022-11-20T00:56:50.872Z,9.719194
2022-11-20T00:57:50.849Z,9.719187
2022-11-20T00:58:50.841Z,9.719224
2022-11-20T00:59:50.830Z,9.719212
2022-11-20T01:00:50.845Z,9.719143
2022-11-20T01:01:50.825Z,9.719268
2022-11-20T01:02:50.803Z,9.719251
2022-11-20T01:03:50.816Z,9.719221
2022-11-20T01:04:50.782Z,9.719254
2022-11-20T01:05:50.775Z,9.719270
2022-11-20T01:06:50.760Z,9.719225
2022-11-20T01:07:50.759Z,9.719197
2022-11-20T01:08:50.764Z,9.719207
2022-11-20T01:09:50.758Z,9.719185
2022-11-20T01:10:50.735Z,9.719209
2022-11-20T01:11:50.700Z,9.719210
2022-11-20T01:12:50.718Z,9.719176
2022-11-20T01:13:50.782Z,9.719166
2022-11-20T01:14:50.680Z,9.719163
2022-11-20T01:15:50.675Z,9.719151
2022-11-20T01:16:50.665Z,9.719153
2022-11-20T01:17:50.697Z,9.719167
2022-11-20T01:18:50.663Z,9.719174
2022-11-20T01:19:50.680Z,9.719175
2022-11-20T01:20:50.619Z,9.719157
2022-11-20T01:21:50.633Z,9.719156
2022-11-20T01:22:50.614Z,9.719103
2022-11-20T01:23:51.723Z,9.719170
2022-11-20T01:24:50.642Z,9.719201
2022-11-20T01:25:50.571Z,9.719237
2022-11-20T01:26:50.571Z,9.719156
2022-11-20T01:27:50.562Z,9.719032
2022-11-20T01:28:50.547Z,9.718946
2022-11-20T01:29:50.557Z,9.719069
2022-11-20T01:30:50.532Z,9.719098
2022-11-20T01:31:50.518Z,9.719092
2022-11-20T01:32:50.510Z,9.719104
2022-11-20T01:33:50.514Z,9.719229
2022-11-20T01:34:50.494Z,9.719234
2022-11-20T01:35:50.502Z,9.719161
2022-11-20T01:36:50.489Z,9.719150
2022-11-20T01:37:50.487Z,9.719185
2022-11-20T01:38:50.461Z,9.719166
2022-11-20T01:39:50.448Z,9.719263
2022-11-20T01:40:50.425Z,9.719234
2022-11-20T01:41:50.432Z,9.719193
2022-11-20T01:42:50.433Z,9.719167
2022-11-20T01:43:50.405Z,9.719184
2022-11-20T01:44:50.408Z,9.719166
2022-11-20T01:45:50.396Z,9.719085
2022-11-20T01:46:50.377Z,9.719278
2022-11-20T01:47:50.400Z,9.719180
2022-11-20T01:48:50.368Z,9.719107
2022-11-20T01:49:50.349Z,9.719038
2022-11-20T01:50:50.337Z,9.719127
2022-11-20T01:51:50.330Z,9.719206
2022-11-20T01:52:50.338Z,9.719245
2022-11-20T01:53:50.321Z,9.719265
2022-11-20T01:54:50.311Z,9.719357
2022-11-20T01:55:50.298Z,9.719180
2022-11-20T01:56:50.299Z,9.719352
2022-11-20T01:57:50.299Z,9.719250
2022-11-20T01:58:50.275Z,9.719267
2022-11-20T01:59:50.264Z,9.719400
2022-11-20T02:00:50.253Z,9.719524
2022-11-20T02:01:50.242Z,9.719539
2022-11-20T02:02:50.252Z,9.719344
2022-11-20T02:03:50.224Z,9.719232
2022-11-20T02:04:50.213Z,9.719166
2022-11-20T02:05:50.219Z,9.719200
2022-11-20T02:06:50.192Z,9.719227
2022-11-20T02:07:50.227Z,9.719330
2022-11-20T02:08:50.185Z,9.719331
2022-11-20T02:09:50.165Z,9.719103
2022-11-20T02:10:50.160Z,9.719188
2022-11-20T02:11:50.160Z,9.719147
2022-11-20T02:12:50.155Z,9.719194
2022-11-20T02:13:50.142Z,9.719237
2022-11-20T02:14:50.134Z,9.719388
2022-11-20T02:15:50.139Z,9.719305
2022-11-20T02:16:50.128Z,9.719334
2022-11-20T02:17:50.099Z,9.719085
2022-11-20T02:18:50.091Z,9.719150
2022-11-20T02:19:50.079Z,9.719047
2022-11-20T02:20:50.088Z,9.719181
2022-11-20T02:21:50.056Z,9.719181
2022-11-20T02:22:50.060Z,9.719187
2022-11-20T02:23:50.044Z,9.719172
2022-11-20T02:24:50.055Z,9.719316
2022-11-20T02:25:50.028Z,9.719327
2022-11-20T02:26:50.022Z,9.719350
2022-11-20T02:27:49.999Z,9.719161
2022-11-20T02:28:50.123Z,9.719051
2022-11-20T02:29:50.009Z,9.719163
2022-11-20T02:30:49.973Z,9.719234
2022-11-20T02:31:49.960Z,9.719105
2022-11-20T02:32:49.964Z,9.719065
2022-11-20T02:33:49.964Z,9.719214
2022-11-20T02:34:49.956Z,9.719257
2022-11-20T02:35:49.932Z,9.719165
2022-11-20T02:36:49.927Z,9.719011
2022-11-20T02:37:49.916Z,9.719071
2022-11-20T02:38:49.899Z,9.719163
2022-11-20T02:39:49.889Z,9.719019
2022-11-20T02:40:55.174Z,9.718908
2022-11-20T02:41:51.861Z,9.718770
2022-11-20T02:42:49.878Z,9.718740
2022-11-20T02:43:49.859Z,9.719147
2022-11-20T02:44:49.840Z,9.719347
2022-11-20T02:45:49.834Z,9.719266
2022-11-20T02:46:49.832Z,9.719466
2022-11-20T02:47:49.832Z,9.719526
2022-11-20T02:48:49.830Z,9.719063
2022-11-20T02:49:49.792Z,9.718967
2022-11-20T02:50:49.778Z,9.718918
2022-11-20T02:51:49.781Z,9.719263
2022-11-20T02:52:49.756Z,9.719344
2022-11-20T02:53:49.772Z,9.719459
2022-11-20T02:54:49.748Z,9.719165
2022-11-20T02:55:49.752Z,9.718953
2022-11-20T02:56:49.736Z,9.719370
2022-11-20T02:57:49.726Z,9.719277
2022-11-20T02:58:49.718Z,9.718707
2022-11-20T02:59:49.726Z,9.718813
2022-11-20T03:00:49.696Z,9.718927
2022-11-20T03:01:57.482Z,9.719146
2022-11-20T03:02:49.674Z,9.719098
2022-11-20T03:03:49.675Z,9.718901
2022-11-20T03:04:49.683Z,9.719049
2022-11-20T03:05:49.639Z,9.719143
2022-11-20T03:06:49.645Z,9.719195
2022-11-20T03:07:49.636Z,9.719091
2022-11-20T03:08:49.624Z,9.719099
2022-11-20T03:09:49.640Z,9.719037
2022-11-20T03:10:49.606Z,9.719260
2022-11-20T03:11:49.666Z,9.719268
2022-11-20T03:12:49.610Z,9.719142
2022-11-20T03:13:49.574Z,9.719085
2022-11-20T03:14:53.082Z,9.719187
2022-11-20T03:15:50.566Z,9.719171
2022-11-20T03:16:49.578Z,9.718994
2022-11-20T03:17:49.536Z,9.719010
2022-11-20T03:18:49.544Z,9.719028
2022-11-20T03:19:49.533Z,9.719219
2022-11-20T03:20:49.517Z,9.719147
2022-11-20T03:21:49.509Z,9.719013
2022-11-20T03:22:49.512Z,9.719090
2022-11-20T03:23:49.475Z,9.719078
2022-11-20T03:24:49.474Z,9.719062
2022-11-20T03:25:49.507Z,9.719042
2022-11-20T03:26:49.457Z,9.719235
2022-11-20T03:27:49.447Z,9.719395
2022-11-20T03:28:49.450Z,9.719241
2022-11-20T03:29:49.423Z,9.719213
2022-11-20T03:30:49.428Z,9.719168
2022-11-20T03:31:49.404Z,9.719151
2022-11-20T03:32:49.429Z,9.719132
2022-11-20T03:33:49.405Z,9.719144
2022-11-20T03:34:49.373Z,9.719030
2022-11-20T03:35:50.370Z,9.718943
2022-11-20T03:36:49.357Z,9.719067
2022-11-20T03:37:49.345Z,9.719165
2022-11-20T03:38:49.359Z,9.719201
2022-11-20T03:39:49.360Z,9.719306
2022-11-20T03:40:49.320Z,9.719331
2022-11-20T03:41:50.321Z,9.719320
2022-11-20T03:42:49.297Z,9.719206
2022-11-20T03:43:49.299Z,9.719139
2022-11-20T03:44:49.304Z,9.719111
2022-11-20T03:45:49.291Z,9.719172
2022-11-20T03:46:49.273Z,9.718975
2022-11-20T03:47:49.265Z,9.719034
2022-11-20T03:48:51.941Z,9.719050
2022-11-20T03:49:50.257Z,9.719164
2022-11-20T03:50:49.232Z,9.719113
2022-11-20T03:51:49.232Z,9.719172
2022-11-20T03:52:49.230Z,9.719200
2022-11-20T03:53:49.205Z,9.719333
2022-11-20T03:54:49.209Z,9.719151
2022-11-20T03:55:49.188Z,9.719176
2022-11-20T03:56:49.191Z,9.719056
2022-11-20T03:57:49.172Z,9.719124
2022-11-20T03:58:49.155Z,9.719052
2022-11-20T03:59:49.144Z,9.719230
2022-11-20T04:00:49.142Z,9.719107
2022-11-20T04:01:49.700Z,9.719067
2022-11-20T04:02:49.148Z,9.719069
2022-11-20T04:03:49.109Z,9.719021
2022-11-20T04:04:49.100Z,9.718984
2022-11-20T04:05:49.104Z,9.719106
2022-11-20T04:06:49.104Z,9.719237
2022-11-20T04:07:49.082Z,9.719089
2022-11-20T04:08:53.548Z,9.719154
2022-11-20T04:09:51.086Z,9.719176
2022-11-20T04:10:49.051Z,9.719253
2022-11-20T04:11:49.040Z,9.719167
2022-11-20T04:12:49.046Z,9.719275
2022-11-20T04:13:49.012Z,9.719139
2022-11-20T04:14:49.009Z,9.719072
2022-11-20T04:15:49.017Z,9.719062
2022-11-20T04:16:48.994Z,9.718671
2022-11-20T04:17:48.980Z,9.718895
2022-11-20T04:18:48.995Z,9.719095
2022-11-20T04:19:48.963Z,9.719419
2022-11-20T04:20:48.956Z,9.718983
2022-11-20T04:21:48.946Z,9.718895
2022-11-20T04:22:48.987Z,9.718794
2022-11-20T04:23:48.928Z,9.718485
2022-11-20T04:24:48.910Z,9.718820
2022-11-20T04:25:48.908Z,9.718884
2022-11-20T04:26:48.905Z,9.718264
2022-11-20T04:27:48.910Z,9.719033
2022-11-20T04:28:48.876Z,9.719008
2022-11-20T04:29:48.895Z,9.718711
2022-11-20T04:30:48.859Z,9.718855
2022-11-20T04:31:48.844Z,9.718797
2022-11-20T04:32:48.842Z,9.718457
2022-11-20T04:33:48.842Z,9.718286
2022-11-20T04:34:48.844Z,9.718683
2022-11-20T04:35:48.796Z,9.718463
2022-11-20T04:36:48.826Z,9.718591
2022-11-20T04:37:48.783Z,9.718493
2022-11-20T04:38:53.828Z,9.719198
2022-11-20T04:39:49.778Z,9.718930
2022-11-20T04:40:48.760Z,9.718615
2022-11-20T04:41:48.757Z,9.718725
2022-11-20T04:42:48.748Z,9.719212
2022-11-20T04:43:48.762Z,9.718930
2022-11-20T04:44:48.727Z,9.719241
2022-11-20T04:45:48.735Z,9.718535
2022-11-20T04:46:48.720Z,9.718914
2022-11-20T04:47:48.698Z,9.719006
2022-11-20T04:48:48.714Z,9.718847
2022-11-20T04:49:48.752Z,9.719353
2022-11-20T04:50:48.668Z,9.718890
2022-11-20T04:51:48.663Z,9.718298
2022-11-20T04:52:48.652Z,9.718618
2022-11-20T04:53:48.643Z,9.719075
2022-11-20T04:54:48.645Z,9.718929
2022-11-20T04:55:48.647Z,9.718974
2022-11-20T04:56:48.874Z,9.718833
2022-11-20T04:57:49.595Z,9.718902
2022-11-20T04:58:48.598Z,9.718797
2022-11-20T04:59:48.602Z,9.718928
2022-11-20T05:00:48.583Z,9.718875
2022-11-20T05:01:48.600Z,9.718836
2022-11-20T05:02:48.557Z,9.718945
2022-11-20T05:03:48.543Z,9.718944
2022-11-20T05:04:48.562Z,9.718909
2022-11-20T05:05:48.524Z,9.718860
2022-11-20T05:06:48.526Z,9.718946
2022-11-20T05:07:48.504Z,9.718902
2022-11-20T05:08:48.501Z,9.719014
2022-11-20T05:09:48.486Z,9.718848
2022-11-20T05:10:48.480Z,9.718813
2022-11-20T05:11:51.464Z,9.718789
2022-11-20T05:12:49.438Z,9.718963
2022-11-20T05:13:48.443Z,9.719127
2022-11-20T05:14:48.440Z,9.718907
2022-11-20T05:15:48.421Z,9.718912
2022-11-20T05:16:48.404Z,9.719187
2022-11-20T05:17:48.410Z,9.719058
2022-11-20T05:18:48.384Z,9.719220
2022-11-20T05:19:52.030Z,9.719054
2022-11-20T05:20:49.357Z,9.719072
2022-11-20T05:21:48.353Z,9.719250
2022-11-20T05:22:48.361Z,9.719216
2022-11-20T05:23:48.334Z,9.719074
2022-11-20T05:24:48.333Z,9.718932
2022-11-20T05:25:48.341Z,9.718752
2022-11-20T05:26:48.325Z,9.718894
2022-11-20T05:27:48.309Z,9.718921
2022-11-20T05:28:48.290Z,9.719110
2022-11-20T05:29:48.272Z,9.718984
2022-11-20T05:30:48.264Z,9.719028
2022-11-20T05:31:48.273Z,9.718955
2022-11-20T05:32:48.251Z,9.718910
2022-11-20T05:33:48.233Z,9.719178
2022-11-20T05:34:48.245Z,9.719250
2022-11-20T05:35:48.219Z,9.719039
2022-11-20T05:36:48.209Z,9.719152
2022-11-20T05:37:48.192Z,9.719104
2022-11-20T05:38:51.131Z,9.719252
2022-11-20T05:39:49.195Z,9.719092
2022-11-20T05:40:48.164Z,9.719054
2022-11-20T05:41:48.148Z,9.719090
2022-11-20T05:42:48.142Z,9.719177
2022-11-20T05:43:48.138Z,9.719165
2022-11-20T05:44:48.134Z,9.719074
2022-11-20T05:45:48.107Z,9.719154
2022-11-20T05:46:48.108Z,9.719203
2022-11-20T05:47:48.100Z,9.719254
2022-11-20T05:48:48.101Z,9.719273
2022-11-20T05:49:48.103Z,9.719099
2022-11-20T05:50:48.088Z,9.719177
2022-11-20T05:51:48.059Z,9.718866
2022-11-20T05:52:48.067Z,9.719277
2022-11-20T05:53:48.772Z,9.719203
2022-11-20T05:54:49.060Z,9.718912
2022-11-20T05:55:48.018Z,9.718707
2022-11-20T05:56:48.014Z,9.719070
2022-11-20T05:57:48.029Z,9.719037
2022-11-20T05:58:48.000Z,9.719172
2022-11-20T05:59:47.992Z,9.719097
2022-11-20T06:00:47.966Z,9.719100
2022-11-20T06:01:47.960Z,9.719151
2022-11-20T06:02:48.021Z,9.718988
2022-11-20T06:03:47.962Z,9.719103
2022-11-20T06:04:47.925Z,9.719250
2022-11-20T06:05:47.922Z,9.719236
2022-11-20T06:06:47.908Z,9.719146
2022-11-20T06:07:47.909Z,9.719148
2022-11-20T06:08:47.952Z,9.719132
2022-11-20T06:09:47.871Z,9.719120
2022-11-20T06:10:47.875Z,9.719132
2022-11-20T06:11:47.863Z,9.719149
2022-11-20T06:12:47.855Z,9.719183
2022-11-20T06:13:47.867Z,9.719078
2022-11-20T06:14:47.848Z,9.719170
2022-11-20T06:15:47.821Z,9.719148
2022-11-20T06:16:47.817Z,9.719145
2022-11-20T06:17:47.854Z,9.719184
2022-11-20T06:18:47.819Z,9.719183
2022-11-20T06:19:47.797Z,9.719205
2022-11-20T06:20:47.780Z,9.719150
2022-11-20T06:21:47.779Z,9.719214
2022-11-20T06:22:47.785Z,9.719115
2022-11-20T06:23:47.759Z,9.719288
2022-11-20T06:24:47.759Z,9.719162
2022-11-20T06:25:47.724Z,9.719135
2022-11-20T06:26:47.722Z,9.719217
2022-11-20T06:27:47.720Z,9.719077
2022-11-20T06:28:47.704Z,9.719180
2022-11-20T06:29:47.724Z,9.719212
2022-11-20T06:30:47.712Z,9.719293
2022-11-20T06:31:47.673Z,9.719288
2022-11-20T06:32:47.667Z,9.719255
2022-11-20T06:33:47.664Z,9.719272
2022-11-20T06:34:47.638Z,9.719263
2022-11-20T06:35:47.644Z,9.719233
2022-11-20T06:36:47.620Z,9.719206
2022-11-20T06:37:47.620Z,9.719090
2022-11-20T06:38:47.601Z,9.719122
2022-11-20T06:39:47.592Z,9.719078
2022-11-20T06:40:47.598Z,9.719045
2022-11-20T06:41:47.629Z,9.719088
2022-11-20T06:42:47.571Z,9.719184
2022-11-20T06:43:47.554Z,9.719148
2022-11-20T06:44:47.567Z,9.719069
2022-11-20T06:45:47.562Z,9.719144
2022-11-20T06:46:47.555Z,9.719236
2022-11-20T06:47:47.507Z,9.719248
2022-11-20T06:48:47.518Z,9.719164
2022-11-20T06:49:47.501Z,9.719146
2022-11-20T06:50:47.501Z,9.719145
2022-11-20T06:51:47.502Z,9.719109
2022-11-20T06:52:47.469Z,9.719116
2022-11-20T06:53:47.461Z,9.719248
2022-11-20T06:54:47.444Z,9.719246
2022-11-20T06:55:47.433Z,9.719401
2022-11-20T06:56:47.445Z,9.719110
2022-11-20T06:57:49.769Z,9.719100
2022-11-20T06:58:48.438Z,9.719163
2022-11-20T06:59:47.408Z,9.719080
2022-11-20T07:00:47.491Z,9.719369
2022-11-20T07:01:47.382Z,9.719415
2022-11-20T07:02:47.370Z,9.719415
2022-11-20T07:03:52.852Z,9.719415
2022-11-20T07:04:49.366Z,9.719281
2022-11-20T07:05:47.345Z,9.719415
2022-11-20T07:06:47.385Z,9.719299
2022-11-20T07:07:47.318Z,9.719084
2022-11-20T07:08:47.325Z,9.718903
2022-11-20T07:09:47.380Z,9.718835
2022-11-20T07:10:47.300Z,9.719018
2022-11-20T07:11:47.313Z,9.718938
2022-11-20T07:12:47.275Z,9.718881
2022-11-20T07:13:47.268Z,9.718960
2022-11-20T07:14:47.249Z,9.719040
2022-11-20T07:15:47.254Z,9.719048
2022-11-20T07:16:47.234Z,9.718975
2022-11-20T07:17:47.265Z,9.719028
2022-11-20T07:18:50.541Z,9.719016
2022-11-20T07:19:48.213Z,9.719521
2022-11-20T07:20:47.194Z,9.719258
2022-11-20T07:21:47.192Z,9.719195
2022-11-20T07:22:47.190Z,9.719180
2022-11-20T07:23:47.163Z,9.719099
2022-11-20T07:24:47.155Z,9.719328
2022-11-20T07:25:47.173Z,9.719231
2022-11-20T07:26:47.145Z,9.719002
2022-11-20T07:27:47.117Z,9.719108
2022-11-20T07:28:48.145Z,9.719044
2022-11-20T07:29:47.104Z,9.719274
2022-11-20T07:30:47.118Z,9.719092
2022-11-20T07:31:47.124Z,9.719096
2022-11-20T07:32:47.077Z,9.719167
2022-11-20T07:33:47.085Z,9.719138
2022-11-20T07:34:47.088Z,9.719046
2022-11-20T07:35:47.069Z,9.719116
2022-11-20T07:36:47.051Z,9.719202
2022-11-20T07:37:47.045Z,9.719234
2022-11-20T07:38:47.020Z,9.719314
2022-11-20T07:39:47.029Z,9.719386
2022-11-20T07:40:47.020Z,9.719289
2022-11-20T07:41:46.992Z,9.719378
2022-11-20T07:42:46.984Z,9.719310
2022-11-20T07:43:47.010Z,9.719255
2022-11-20T07:44:46.954Z,9.719169
2022-11-20T07:45:46.936Z,9.719364
2022-11-20T07:46:47.945Z,9.719105
2022-11-20T07:47:46.925Z,9.719337
2022-11-20T07:48:46.987Z,9.719343
2022-11-20T07:49:46.921Z,9.719373
2022-11-20T07:50:46.899Z,9.719349
2022-11-20T07:51:50.171Z,9.719291
2022-11-20T07:52:47.878Z,9.719215
2022-11-20T07:53:46.867Z,9.719105
2022-11-20T07:54:46.877Z,9.719106
2022-11-20T07:55:46.847Z,9.719164
2022-11-20T07:56:46.838Z,9.719063
2022-11-20T07:57:46.833Z,9.719016
2022-11-20T07:58:46.852Z,9.719215
2022-11-20T07:59:46.818Z,9.719206
2022-11-20T08:00:46.873Z,9.719322
2022-11-20T08:01:46.801Z,9.719242
2022-11-20T08:02:46.781Z,9.719382
2022-11-20T08:03:46.806Z,9.719378
2022-11-20T08:04:46.775Z,9.719259
2022-11-20T08:05:46.761Z,9.719224
2022-11-20T08:06:46.759Z,9.719203
2022-11-20T08:07:46.833Z,9.719338
2022-11-20T08:08:46.741Z,9.719232
2022-11-20T08:09:46.751Z,9.719272
2022-11-20T08:10:46.717Z,9.719234
2022-11-20T08:11:46.708Z,9.719192
2022-11-20T08:12:46.705Z,9.719097
2022-11-20T08:13:46.684Z,9.719668
2022-11-20T08:14:46.684Z,9.719668
2022-11-20T08:15:46.667Z,9.718967
2022-11-20T08:16:46.658Z,9.718946
2022-11-20T08:18:08.222Z,9.718731
2022-11-20T08:18:48.631Z,9.718542
2022-11-20T08:19:46.625Z,9.718623
2022-11-20T08:20:46.626Z,9.717916
2022-11-20T08:21:46.625Z,9.717350
2022-11-20T08:22:46.600Z,9.718150
2022-11-20T08:23:46.593Z,9.718194
2022-11-20T08:24:46.571Z,9.718438
2022-11-20T08:25:46.574Z,9.718455
2022-11-20T08:26:46.562Z,9.718352
2022-11-20T08:27:46.552Z,9.718452
2022-11-20T08:28:46.537Z,9.718662
2022-11-20T08:29:46.530Z,9.718580
2022-11-20T08:30:46.508Z,9.718538
2022-11-20T08:31:46.522Z,9.719047
2022-11-20T08:32:46.495Z,9.719067
2022-11-20T08:33:46.478Z,9.718923
2022-11-20T08:34:46.511Z,9.718774
2022-11-20T08:35:46.496Z,9.719006
2022-11-20T08:36:46.461Z,9.719338
2022-11-20T08:37:46.448Z,9.719216
2022-11-20T08:38:46.448Z,9.719342
2022-11-20T08:39:46.445Z,9.719472
2022-11-20T08:40:46.418Z,9.719319
2022-11-20T08:41:46.438Z,9.719214
2022-11-20T08:42:46.406Z,9.719303
2022-11-20T08:43:46.403Z,9.719281
2022-11-20T08:44:46.388Z,9.719287
2022-11-20T08:45:46.375Z,9.719378
2022-11-20T08:46:46.380Z,9.719213
2022-11-20T08:47:46.342Z,9.719078
2022-11-20T08:48:46.356Z,9.719388
2022-11-20T08:49:46.332Z,9.719470
2022-11-20T08:50:46.317Z,9.719464
2022-11-20T08:51:46.336Z,9.719429
2022-11-20T08:52:46.311Z,9.719409
2022-11-20T08:53:46.292Z,9.719425
2022-11-20T08:54:46.279Z,9.719433
2022-11-20T08:55:46.282Z,9.719391
2022-11-20T08:56:46.279Z,9.719463
2022-11-20T08:57:50.607Z,9.719451
2022-11-20T08:59:16.478Z,9.719490
2022-11-20T09:00:05.587Z,9.719434
2022-11-20T09:00:48.259Z,9.719275
2022-11-20T09:01:46.217Z,9.719339
2022-11-20T09:03:18.148Z,9.719411
2022-11-20T09:03:46.216Z,9.719284
2022-11-20T09:04:46.200Z,9.719290
2022-11-20T09:05:46.192Z,9.719308
2022-11-20T09:06:46.168Z,9.719279
2022-11-20T09:07:46.164Z,9.719293
2022-11-20T09:08:46.175Z,9.719360
2022-11-20T09:09:46.409Z,9.719393
2022-11-20T09:10:47.133Z,9.719201
2022-11-20T09:11:46.126Z,9.719287
2022-11-20T09:12:46.222Z,9.719202
2022-11-20T09:13:46.126Z,9.719252
2022-11-20T09:14:48.726Z,9.719253
2022-11-20T09:15:46.164Z,9.719334
2022-11-20T09:16:46.086Z,9.719271
2022-11-20T09:17:46.086Z,9.719156
2022-11-20T09:18:46.131Z,9.719264
2022-11-20T09:19:46.568Z,9.719327
2022-11-20T09:20:46.082Z,9.719311
2022-11-20T09:21:46.081Z,9.719274
2022-11-20T09:22:46.009Z,9.719292
2022-11-20T09:23:46.128Z,9.719312
2022-11-20T09:24:46.036Z,9.719273
2022-11-20T09:25:45.985Z,9.719311
2022-11-20T09:26:45.976Z,9.719378
2022-11-20T09:27:45.959Z,9.719324
2022-11-20T09:28:45.938Z,9.719193
2022-11-20T09:29:45.970Z,9.719176
2022-11-20T09:30:45.929Z,9.719292
2022-11-20T09:31:45.907Z,9.719408
2022-11-20T09:32:45.914Z,9.719142
2022-11-20T09:33:45.901Z,9.719213
2022-11-20T09:34:45.910Z,9.719164
2022-11-20T09:35:45.889Z,9.719157
2022-11-20T09:36:45.864Z,9.719143
2022-11-20T09:37:45.874Z,9.719275
2022-11-20T09:38:45.850Z,9.719337
2022-11-20T09:39:45.849Z,9.719346
2022-11-20T09:40:45.868Z,9.719338
2022-11-20T09:41:45.815Z,9.719115
2022-11-20T09:42:45.808Z,9.719268
2022-11-20T09:43:45.833Z,9.719240
2022-11-20T09:44:45.804Z,9.719240
2022-11-20T09:45:45.817Z,9.719193
2022-11-20T09:46:45.781Z,9.719245
2022-11-20T09:47:45.778Z,9.719294
2022-11-20T09:48:45.773Z,9.719326
2022-11-20T09:49:45.743Z,9.719338
2022-11-20T09:50:45.735Z,9.719360
2022-11-20T09:51:45.731Z,9.719246
2022-11-20T09:52:45.864Z,9.719237
2022-11-20T09:53:45.780Z,9.719221
2022-11-20T09:54:45.775Z,9.718969
2022-11-20T09:55:45.677Z,9.719259
2022-11-20T09:56:45.664Z,9.719272
2022-11-20T09:57:45.737Z,9.719323
2022-11-20T09:58:45.668Z,9.719323
2022-11-20T09:59:45.643Z,9.719323
2022-11-20T10:00:45.677Z,9.719323
2022-11-20T10:01:45.623Z,9.719323
2022-11-20T10:02:45.634Z,9.719323
2022-11-20T10:03:45.661Z,9.719323
2022-11-20T10:04:45.595Z,9.719113
2022-11-20T10:05:45.582Z,9.719174
2022-11-20T10:06:46.072Z,9.719200
2022-11-20T10:07:45.583Z,9.719105
2022-11-20T10:08:45.571Z,9.719092
2022-11-20T10:09:45.566Z,9.719007
2022-11-20T10:10:49.445Z,9.719172
2022-11-20T10:11:47.520Z,9.719119
2022-11-20T10:12:45.513Z,9.719219
2022-11-20T10:13:45.506Z,9.719079
2022-11-20T10:14:45.577Z,9.718999
2022-11-20T10:15:45.473Z,9.719172
2022-11-20T10:16:45.478Z,9.719201
2022-11-20T10:17:45.465Z,9.719147
2022-11-20T10:18:45.445Z,9.719110
2022-11-20T10:19:45.446Z,9.719246
2022-11-20T10:20:45.456Z,9.719360
2022-11-20T10:21:45.418Z,9.719248
2022-11-20T10:22:45.408Z,9.719363
2022-11-20T10:23:45.404Z,9.719492
2022-11-20T10:24:45.406Z,9.719543
2022-11-20T10:25:45.453Z,9.719534
2022-11-20T10:26:45.387Z,9.719235
2022-11-20T10:27:45.369Z,9.719290
2022-11-20T10:28:52.629Z,9.719246
2022-11-20T10:29:47.345Z,9.718994
2022-11-20T10:30:45.330Z,9.719287
2022-11-20T10:31:45.342Z,9.719310
2022-11-20T10:32:45.346Z,9.719279
2022-11-20T10:34:10.683Z,9.719300
2022-11-20T10:34:47.316Z,9.719364
2022-11-20T10:35:45.310Z,9.719238
2022-11-20T10:36:45.295Z,9.719205
2022-11-20T10:37:45.280Z,9.719249
2022-11-20T10:38:45.289Z,9.719283
2022-11-20T10:39:45.247Z,9.719308
2022-11-20T10:40:45.290Z,9.719238
2022-11-20T10:41:45.256Z,9.719247
2022-11-20T10:42:45.253Z,9.718998
2022-11-20T10:43:45.207Z,9.719015
2022-11-20T10:44:45.217Z,9.719026
2022-11-20T10:45:45.185Z,9.719110
2022-11-20T10:46:45.183Z,9.719034
2022-11-20T10:47:45.179Z,9.719077
2022-11-20T10:48:45.165Z,9.719124
2022-11-20T10:49:45.172Z,9.719132
2022-11-20T10:50:45.161Z,9.719080
2022-11-20T10:51:45.129Z,9.719083
2022-11-20T10:52:45.156Z,9.718992
2022-11-20T10:53:45.111Z,9.719248
2022-11-20T10:54:45.111Z,9.719183
2022-11-20T10:55:46.095Z,9.719088
2022-11-20T10:56:49.655Z,9.719041
2022-11-20T10:57:47.085Z,9.719231
2022-11-20T10:58:45.063Z,9.719197
2022-11-20T10:59:45.062Z,9.719275
2022-11-20T11:00:45.119Z,9.719000
2022-11-20T11:01:45.042Z,9.719035
2022-11-20T11:02:45.036Z,9.719181
2022-11-20T11:03:45.021Z,9.719146
2022-11-20T11:04:45.015Z,9.719068
2022-11-20T11:05:45.024Z,9.719224
2022-11-20T11:06:44.992Z,9.719079
2022-11-20T11:07:45.055Z,9.719063
2022-11-20T11:08:44.970Z,9.719193
2022-11-20T11:09:44.970Z,9.719361
2022-11-20T11:10:44.976Z,9.719342
2022-11-20T11:11:44.950Z,9.719060
2022-11-20T11:12:44.934Z,9.719133
2022-11-20T11:13:44.923Z,9.719251
2022-11-20T11:14:44.922Z,9.719227
2022-11-20T11:15:44.929Z,9.719275
2022-11-20T11:16:44.897Z,9.719296
2022-11-20T11:17:44.879Z,9.719283
2022-11-20T11:18:44.871Z,9.719172
2022-11-20T11:19:45.847Z,9.719243
2022-11-20T11:20:44.859Z,9.719316
2022-11-20T11:21:44.861Z,9.719160
2022-11-20T11:22:44.833Z,9.719246
2022-11-20T11:23:44.835Z,9.719137
2022-11-20T11:24:44.803Z,9.719185
2022-11-20T11:25:44.810Z,9.719428
2022-11-20T11:26:44.823Z,9.719311
2022-11-20T11:27:44.784Z,9.719144
2022-11-20T11:28:44.785Z,9.719126
2022-11-20T11:29:44.753Z,9.719152
2022-11-20T11:30:44.761Z,9.719094
2022-11-20T11:31:44.746Z,9.719060
2022-11-20T11:32:44.771Z,9.719011
2022-11-20T11:33:44.724Z,9.718951
2022-11-20T11:34:44.711Z,9.719096
2022-11-20T11:35:48.258Z,9.719089
2022-11-20T11:36:46.697Z,9.719110
2022-11-20T11:37:44.714Z,9.719048
2022-11-20T11:38:44.690Z,9.719049
2022-11-20T11:39:44.661Z,9.718976
2022-11-20T11:40:44.669Z,9.718993
2022-11-20T11:41:44.673Z,9.719041
2022-11-20T11:42:44.642Z,9.719061
2022-11-20T11:43:44.624Z,9.719069
2022-11-20T11:44:44.626Z,9.719046